Evington, VA (24550)

2:13 AM EST on January 27, 2015 (GMT -0500)
Wildwood Subdivision | Change Station
CLOSE
Current Station
Personal Weather Station
Location: Lynchburg, VA
Elevation: 843 ft
Nearby Weather Stations

Elev 843 ft 37.30 °N, 79.26 °W | Updated 12 seconds ago

Overcast
Overcast
32.9 °F
Feels Like 33 °F
N
0.0
Wind Variable Wind from SW
Gusts 0.0 mph

Today
High -- | Low -- °F
--% Chance of Precip.
Yesterday
High -- | Low -- °F
Precip. -- in
7:23 AM 5:35 PM
Waxing Crescent, 51% visible
Pressure 29.72 in
Visibility 10.0 miles
Clouds Overcast 7500 ft
Windchill 33 °F
Dew Point 23 °F
Humidity 67%
Rainfall 0.00 in
Snow Depth Not available.
UV 0 out of 12
Pollen .30 out of 12
Air Quality Not available.
Flu Activity Not available.
METAR KLYH 270654Z AUTO 33007KT 300V010 10SM OVC075 01/M05 A2971 RMK AO2 SLP064 T00061050

More Conditions Fewer Conditions

Pressure 29.72 in
Visibility 10.0 miles
Clouds Overcast 7500 ft
Windchill 33 °F
Dew Point 23 °F
Humidity 67%
Rainfall 0.00 in
Snow Depth Not available.
UV 0 out of 12
Pollen .30 out of 12
Air Quality Not available.
Flu Activity Not available.
METAR KLYH 270654Z AUTO 33007KT 300V010 10SM OVC075 01/M05 A2971 RMK AO2 SLP064 T00061050

More Conditions Fewer Conditions

10-Day Weather Forecast

Almanac

Astronomy

Jan. 27, 2015 Rise Set
Actual Time
Civil Twilight
Nautical Twilight
Astronomical Twilight
Moon
Length of Visible Light
Length of Day
Tomorrow will be .
, % of the Moon is Illuminated

Today's Extremes

State Highs State Lows

Community

WunderPhotos

Upload Photos

1,790,544 photos uploaded!

WunderBlogs® & News

Nearby

Air Quality

  Air Quality AQ Index Pollutant
Not available.

Snow Depth

Station Depth Elevation

Earthquake Activity

City Distance Mag. Time & Date
Minimum magnitude displayed is 2.5.

Coastal Water Temperatures

Place Temperature

Nearby Weather Stations